Time;durP1;ratioP1;P1;durP2;ratioP2;P2;SDS_P1;SDS_P2;PMS_P1;PMS_P2;Temp;Humidity;BMP_temperature;BMP_pressure;BME280_temperature;BME280_humidity;BME280_pressure;Samples;Min_cycle;Max_cycle;Signal;HPM_P1;HPM_P2
2023/12/15 00:01:49;;;;;;;67.13;29.52;;;;;;;;;;5057623;28;20923;-90
2023/12/15 00:04:21;;;;;;;64.80;30.10;;;;;;;;;;5057355;28;20420;-89
2023/12/15 00:06:54;;;;;;;66.20;30.42;;;;;;;;;;5058316;28;20438;-89
2023/12/15 00:09:20;;;;;;;69.90;30.23;;;;;;;;;;5046930;28;20401;-89
2023/12/15 00:11:46;;;;;;;67.87;31.17;;;;;;;;;;5088277;28;20417;-89
2023/12/15 00:14:12;;;;;;;69.35;31.20;;;;;;;;;;5044550;28;20406;-90
2023/12/15 00:16:38;;;;;;;65.85;31.85;;;;;;;;;;5077897;28;20878;-90
2023/12/15 00:19:04;;;;;;;80.93;32.38;;;;;;;;;;5057687;28;20403;-88
2023/12/15 00:21:30;;;;;;;78.65;33.47;;;;;;;;;;5058014;28;20407;-89
2023/12/15 00:23:57;;;;;;;75.63;33.17;;;;;;;;;;5083395;28;20430;-89
2023/12/15 00:26:25;;;;;;;84.68;34.30;;;;;;;;;;5097944;28;20401;-90
2023/12/15 00:28:52;;;;;;;85.78;34.70;;;;;;;;;;5080298;28;20880;-90
2023/12/15 00:31:18;;;;;;;88.38;34.85;;;;;;;;;;5091130;28;20423;-89
2023/12/15 00:33:46;;;;;;;90.65;36.10;;;;;;;;;;5120604;27;20403;-90
2023/12/15 00:36:12;;;;;;;94.30;35.73;;;;;;;;;;5064499;28;20402;-89
2023/12/15 00:38:38;;;;;;;89.82;35.80;;;;;;;;;;5103461;28;20883;-89
2023/12/15 00:41:05;;;;;;;84.80;35.00;;;;;;;;;;5065110;28;20406;-90
2023/12/15 00:43:31;;;;;;;91.03;36.67;;;;;;;;;;5095411;28;20449;-90
2023/12/15 00:45:57;;;;;;;101.78;37.00;;;;;;;;;;5094827;28;20405;-89
2023/12/15 00:48:23;;;;;;;103.65;39.25;;;;;;;;;;5093576;28;20441;-89
2023/12/15 00:50:49;;;;;;;107.20;38.63;;;;;;;;;;5076085;28;20414;-90
2023/12/15 00:53:15;;;;;;;113.32;39.40;;;;;;;;;;5095924;28;20509;-90
2023/12/15 00:55:41;;;;;;;112.63;39.77;;;;;;;;;;5091809;28;20904;-90
2023/12/15 00:58:07;;;;;;;110.50;40.53;;;;;;;;;;5076378;28;20897;-90
2023/12/15 01:00:33;;;;;;;124.53;41.63;;;;;;;;;;5093679;28;20406;-90
2023/12/15 01:03:02;;;;;;;121.57;42.67;;;;;;;;;;5092727;28;20490;-90
2023/12/15 01:05:28;;;;;;;128.68;42.53;;;;;;;;;;5101438;28;20396;-90
2023/12/15 01:07:54;;;;;;;132.13;43.50;;;;;;;;;;5104711;28;20402;-89
2023/12/15 01:10:21;;;;;;;141.68;43.20;;;;;;;;;;5094366;28;20765;-88
2023/12/15 01:12:49;;;;;;;125.03;42.42;;;;;;;;;;5068534;28;22186;-89
2023/12/15 01:15:17;;;;;;;131.73;43.42;;;;;;;;;;5097069;28;20400;-89
2023/12/15 01:17:43;;;;;;;140.50;45.37;;;;;;;;;;5066509;28;20400;-89
2023/12/15 01:20:10;;;;;;;140.02;45.58;;;;;;;;;;5093234;28;20758;-89
2023/12/15 01:22:36;;;;;;;153.82;45.50;;;;;;;;;;5066911;28;20467;-88
2023/12/15 01:25:02;;;;;;;136.88;44.33;;;;;;;;;;5060301;28;20443;-88
2023/12/15 01:27:33;;;;;;;143.85;45.33;;;;;;;;;;5092286;28;20394;-89
2023/12/15 01:30:00;;;;;;;133.45;43.70;;;;;;;;;;5063181;28;20397;-88
2023/12/15 01:32:26;;;;;;;142.05;44.20;;;;;;;;;;5092877;28;20400;-89
2023/12/15 01:34:52;;;;;;;140.20;46.40;;;;;;;;;;5071817;28;20412;-88
2023/12/15 01:37:18;;;;;;;163.75;47.72;;;;;;;;;;5065866;28;20488;-89
2023/12/15 01:39:44;;;;;;;137.23;44.53;;;;;;;;;;5090489;28;20417;-89
2023/12/15 01:42:10;;;;;;;138.13;45.33;;;;;;;;;;5107179;28;20408;-89
2023/12/15 01:44:37;;;;;;;134.10;43.88;;;;;;;;;;5092185;28;20409;-89
2023/12/15 01:47:03;;;;;;;132.30;44.88;;;;;;;;;;5099941;28;20482;-89
2023/12/15 01:49:29;;;;;;;154.50;46.97;;;;;;;;;;5092612;28;20403;-89
2023/12/15 01:51:56;;;;;;;137.47;45.23;;;;;;;;;;5092509;28;20406;-90
2023/12/15 01:54:22;;;;;;;126.00;43.33;;;;;;;;;;5090975;28;20426;-89
2023/12/15 01:56:50;;;;;;;127.50;44.83;;;;;;;;;;5075590;28;20893;-88
2023/12/15 01:59:16;;;;;;;123.70;44.17;;;;;;;;;;5092089;28;20414;-89
2023/12/15 02:01:43;;;;;;;130.55;43.95;;;;;;;;;;5091357;28;20402;-89
2023/12/15 02:04:09;;;;;;;119.28;42.05;;;;;;;;;;5091322;28;20422;-89
2023/12/15 02:06:35;;;;;;;121.90;43.10;;;;;;;;;;5090480;28;20441;-89
2023/12/15 02:09:01;;;;;;;118.82;42.20;;;;;;;;;;5077886;28;20479;-88
2023/12/15 02:11:27;;;;;;;110.82;42.47;;;;;;;;;;5076080;28;20427;-89
2023/12/15 02:13:53;;;;;;;116.28;41.83;;;;;;;;;;5090881;28;20465;-89
2023/12/15 02:16:19;;;;;;;116.03;41.55;;;;;;;;;;5109895;27;20455;-89
2023/12/15 02:18:45;;;;;;;114.18;42.00;;;;;;;;;;5091366;28;20915;-89
2023/12/15 02:21:11;;;;;;;116.37;41.57;;;;;;;;;;5091766;28;20534;-88
2023/12/15 02:23:38;;;;;;;118.55;41.10;;;;;;;;;;5059320;28;20450;-89
2023/12/15 02:26:04;;;;;;;130.52;43.58;;;;;;;;;;5083262;28;20393;-89
2023/12/15 02:28:30;;;;;;;98.88;39.90;;;;;;;;;;5055231;28;20420;-89
2023/12/15 02:30:56;;;;;;;99.00;38.80;;;;;;;;;;5096666;28;20404;-90
2023/12/15 02:33:22;;;;;;;110.00;40.58;;;;;;;;;;5092841;28;20856;-90
2023/12/15 02:35:50;;;;;;;116.43;40.88;;;;;;;;;;5096016;28;20404;-90
2023/12/15 02:38:18;;;;;;;119.68;39.63;;;;;;;;;;5058069;28;20405;-90
2023/12/15 02:40:44;;;;;;;108.85;39.95;;;;;;;;;;5090845;28;20398;-89
2023/12/15 02:43:11;;;;;;;119.80;41.05;;;;;;;;;;5091171;28;20792;-88
2023/12/15 02:45:37;;;;;;;121.35;41.00;;;;;;;;;;5089916;28;20501;-88
2023/12/15 02:48:04;;;;;;;123.47;41.47;;;;;;;;;;5074147;28;20398;-90
2023/12/15 02:50:30;;;;;;;104.53;40.28;;;;;;;;;;5066452;28;20425;-90
2023/12/15 02:52:58;;;;;;;122.10;42.22;;;;;;;;;;5095279;28;20400;-89
2023/12/15 02:55:24;;;;;;;123.28;41.13;;;;;;;;;;5076701;28;20779;-88
2023/12/15 02:57:50;;;;;;;110.57;39.70;;;;;;;;;;5090120;28;20410;-88
2023/12/15 03:00:17;;;;;;;119.57;40.63;;;;;;;;;;5107449;27;20787;-89
2023/12/15 03:02:43;;;;;;;116.47;41.03;;;;;;;;;;5089918;28;20828;-89
2023/12/15 03:05:09;;;;;;;121.55;41.53;;;;;;;;;;5092305;28;20818;-89
2023/12/15 03:07:35;;;;;;;123.95;41.53;;;;;;;;;;5072808;28;20693;-88
2023/12/15 03:10:01;;;;;;;131.50;42.43;;;;;;;;;;5092797;28;20532;-89
2023/12/15 03:12:29;;;;;;;122.22;41.22;;;;;;;;;;5066966;28;20412;-88
2023/12/15 03:14:56;;;;;;;124.07;42.20;;;;;;;;;;5069789;28;20419;-88
2023/12/15 03:17:23;;;;;;;132.00;41.37;;;;;;;;;;5091454;28;20423;-89
2023/12/15 03:19:51;;;;;;;124.40;41.53;;;;;;;;;;5074645;28;20402;-89
2023/12/15 03:22:17;;;;;;;131.25;41.00;;;;;;;;;;5074553;28;20894;-88
2023/12/15 03:24:43;;;;;;;115.95;41.15;;;;;;;;;;5108821;28;20904;-89
2023/12/15 03:27:09;;;;;;;127.82;40.53;;;;;;;;;;5076531;28;20390;-88
2023/12/15 03:29:35;;;;;;;123.50;40.77;;;;;;;;;;5090174;28;20406;-88
2023/12/15 03:32:01;;;;;;;128.23;41.35;;;;;;;;;;5061882;28;20398;-89
2023/12/15 03:34:27;;;;;;;146.25;41.88;;;;;;;;;;5090966;28;20970;-88
2023/12/15 03:36:53;;;;;;;124.37;40.70;;;;;;;;;;5063439;28;20428;-88
2023/12/15 03:39:19;;;;;;;136.77;41.55;;;;;;;;;;5091045;28;20394;-88
2023/12/15 03:41:46;;;;;;;123.82;40.10;;;;;;;;;;5075953;28;20397;-88
2023/12/15 03:44:12;;;;;;;124.50;41.13;;;;;;;;;;5093039;28;20454;-87
2023/12/15 03:46:38;;;;;;;117.13;38.97;;;;;;;;;;5081023;28;20394;-87
2023/12/15 03:49:04;;;;;;;110.60;38.13;;;;;;;;;;5060960;28;20414;-88
2023/12/15 03:51:30;;;;;;;110.00;37.17;;;;;;;;;;5090859;28;20406;-88
2023/12/15 03:53:56;;;;;;;113.18;37.50;;;;;;;;;;5108432;28;20409;-88
2023/12/15 03:56:26;;;;;;;112.50;37.55;;;;;;;;;;5064943;28;20405;-88
2023/12/15 03:58:52;;;;;;;110.13;37.63;;;;;;;;;;5090699;28;20408;-88
2023/12/15 04:01:18;;;;;;;128.45;39.17;;;;;;;;;;5089960;28;20434;-88
2023/12/15 04:03:45;;;;;;;118.80;39.65;;;;;;;;;;5081532;28;20433;-88
2023/12/15 04:06:11;;;;;;;119.65;38.90;;;;;;;;;;5090728;28;20402;-87
2023/12/15 04:08:39;;;;;;;109.43;38.57;;;;;;;;;;5089534;28;20430;-87
2023/12/15 04:11:06;;;;;;;121.75;39.72;;;;;;;;;;5089969;28;20401;-87
2023/12/15 04:13:32;;;;;;;113.43;39.72;;;;;;;;;;5099037;28;20491;-86
2023/12/15 04:15:58;;;;;;;120.65;38.35;;;;;;;;;;5063995;28;20413;-88
2023/12/15 04:18:25;;;;;;;106.20;37.15;;;;;;;;;;5089211;28;20401;-87
2023/12/15 04:20:51;;;;;;;120.75;39.80;;;;;;;;;;5074662;28;20422;-88
2023/12/15 04:23:17;;;;;;;119.40;37.75;;;;;;;;;;5060665;28;20476;-88
2023/12/15 04:25:43;;;;;;;110.25;37.30;;;;;;;;;;5072966;28;20426;-88
2023/12/15 04:28:09;;;;;;;115.22;37.72;;;;;;;;;;5090270;28;20421;-88
2023/12/15 04:30:35;;;;;;;103.43;37.15;;;;;;;;;;5082571;28;20416;-88
2023/12/15 04:33:01;;;;;;;124.03;39.55;;;;;;;;;;5093452;28;20401;-88
2023/12/15 04:35:27;;;;;;;114.60;39.08;;;;;;;;;;5097264;28;20887;-87
2023/12/15 04:37:54;;;;;;;123.75;39.95;;;;;;;;;;5049586;28;20404;-88
2023/12/15 04:40:20;;;;;;;122.00;39.30;;;;;;;;;;5064181;28;20765;-88
2023/12/15 04:42:46;;;;;;;119.45;38.55;;;;;;;;;;5109810;28;20473;-88
2023/12/15 04:45:12;;;;;;;129.07;40.00;;;;;;;;;;5067804;28;20393;-87
2023/12/15 04:47:38;;;;;;;123.97;38.73;;;;;;;;;;5094605;28;20439;-88
2023/12/15 04:50:04;;;;;;;115.13;38.10;;;;;;;;;;5072004;28;20421;-88
2023/12/15 04:52:30;;;;;;;107.82;37.63;;;;;;;;;;5052471;28;20423;-89
2023/12/15 04:54:56;;;;;;;110.18;36.97;;;;;;;;;;5080598;28;20493;-88
2023/12/15 04:57:23;;;;;;;118.65;37.40;;;;;;;;;;5079844;28;20768;-89
2023/12/15 04:59:49;;;;;;;113.27;37.10;;;;;;;;;;5087287;28;20483;-88
2023/12/15 05:02:15;;;;;;;104.72;36.33;;;;;;;;;;5109606;27;20493;-89
2023/12/15 05:04:41;;;;;;;114.93;37.83;;;;;;;;;;5093206;28;20397;-88
2023/12/15 05:07:07;;;;;;;118.00;40.05;;;;;;;;;;5094634;28;20475;-88
2023/12/15 05:09:33;;;;;;;133.23;40.70;;;;;;;;;;5074870;28;20397;-88
2023/12/15 05:11:59;;;;;;;115.90;38.05;;;;;;;;;;5092147;28;20394;-88
2023/12/15 05:14:25;;;;;;;126.18;39.50;;;;;;;;;;5102466;28;20432;-87
2023/12/15 05:16:52;;;;;;;129.55;38.83;;;;;;;;;;5076803;28;20438;-89
2023/12/15 05:19:19;;;;;;;123.60;37.88;;;;;;;;;;5079954;28;20400;-88
2023/12/15 05:21:47;;;;;;;131.73;38.03;;;;;;;;;;5072881;28;20397;-87
2023/12/15 05:24:15;;;;;;;128.52;38.30;;;;;;;;;;5092261;28;20429;-87
2023/12/15 05:26:41;;;;;;;109.03;35.53;;;;;;;;;;5102133;28;20484;-87
2023/12/15 05:29:07;;;;;;;112.72;36.58;;;;;;;;;;5096100;28;20499;-88
2023/12/15 05:31:33;;;;;;;107.18;34.70;;;;;;;;;;5077111;28;20408;-88
2023/12/15 05:33:59;;;;;;;124.45;39.67;;;;;;;;;;5080395;28;20397;-89
2023/12/15 05:36:25;;;;;;;138.30;41.20;;;;;;;;;;5076763;28;20423;-88
2023/12/15 05:38:53;;;;;;;166.07;43.10;;;;;;;;;;5109326;28;20492;-88
2023/12/15 05:41:19;;;;;;;549.88;77.28;;;;;;;;;;5079844;28;20559;-88
2023/12/15 05:43:45;;;;;;;170.93;43.63;;;;;;;;;;5061532;28;20425;-89
2023/12/15 05:46:11;;;;;;;312.08;56.10;;;;;;;;;;5084314;28;20396;-88
2023/12/15 05:48:37;;;;;;;124.23;36.90;;;;;;;;;;5064927;28;20475;-89
2023/12/15 05:51:04;;;;;;;198.65;42.83;;;;;;;;;;5090315;28;20413;-88
2023/12/15 05:53:30;;;;;;;176.27;43.58;;;;;;;;;;5110356;28;20429;-88
2023/12/15 05:55:56;;;;;;;150.27;40.90;;;;;;;;;;5093070;28;20406;-89
2023/12/15 05:58:22;;;;;;;701.22;88.03;;;;;;;;;;5112027;28;20398;-89
2023/12/15 06:00:49;;;;;;;166.95;42.83;;;;;;;;;;5072056;28;20418;-88
2023/12/15 06:03:24;;;;;;;117.93;37.92;;;;;;;;;;5098721;28;20424;-88
2023/12/15 06:05:53;;;;;;;361.95;57.30;;;;;;;;;;5096819;28;20418;-88
2023/12/15 06:08:20;;;;;;;239.75;46.20;;;;;;;;;;5093184;28;20398;-89
2023/12/15 06:10:55;;;;;;;121.28;38.05;;;;;;;;;;5078616;28;20410;-88
2023/12/15 06:13:21;;;;;;;561.50;79.67;;;;;;;;;;5084698;28;20502;-88
2023/12/15 06:15:48;;;;;;;209.80;47.13;;;;;;;;;;5056894;28;20407;-88
2023/12/15 06:18:20;;;;;;;155.75;38.65;;;;;;;;;;5066546;28;20411;-88
2023/12/15 06:21:23;;;;;;;200.60;43.28;;;;;;;;;;5066106;28;20771;-89
2023/12/15 06:26:41;;;;;;;112.05;34.55;;;;;;;;;;5040037;28;20415;-89
2023/12/15 06:29:16;;;;;;;157.13;38.42;;;;;;;;;;5038074;28;20405;-90
2023/12/15 06:31:51;;;;;;;213.70;45.63;;;;;;;;;;5053744;28;20409;-90
2023/12/15 06:34:17;;;;;;;110.85;35.03;;;;;;;;;;5048192;28;20469;-91
2023/12/15 06:37:02;;;;;;;110.18;34.22;;;5.70;99.90;;;;;;5043739;28;20407;-92
2023/12/15 06:39:40;;;;;;;138.65;37.05;;;;;;;;;;5051075;28;20459;-90
2023/12/15 06:42:10;;;;;;;132.15;36.40;;;;;;;;;;5018428;28;20425;-89
2023/12/15 06:44:36;;;;;;;429.60;60.38;;;;;;;;;;5042796;28;20487;-90
2023/12/15 06:47:32;;;;;;;223.63;43.93;;;;;;;;;;5037086;28;20406;-89
2023/12/15 06:50:20;;;;;;;;;;;;;;;;;;;;;
2023/12/15 06:52:51;;;;;;;118.60;33.85;;;;;;;;;;5052945;28;20402;-86
2023/12/15 06:55:18;;;;;;;114.10;33.55;;;;;;;;;;5024904;28;20457;-89
2023/12/15 06:58:29;;;;;;;108.53;32.40;;;;;;;;;;5032965;28;20768;-89
2023/12/15 07:01:10;;;;;;;114.00;33.17;;;;;;;;;;5015524;28;20899;-91
2023/12/15 07:03:39;;;;;;;95.95;30.85;;;;;;;;;;5056811;28;20805;-90
2023/12/15 07:09:27;;;;;;;96.13;32.10;;;;;;;;;;5018756;28;20465;-90
2023/12/15 07:12:00;;;;;;;106.15;31.63;;;;;;;;;;4972200;28;20785;-89
2023/12/15 07:14:34;;;;;;;110.70;31.67;;;;;;;;;;5009832;28;20956;-89
2023/12/15 07:17:21;;;;;;;;;;;;;;;;;;;;;
2023/12/15 07:20:09;;;;;;;91.82;29.50;;;;;;;;;;5027626;28;20489;-90
2023/12/15 07:22:56;;;;;;;89.47;28.83;;;;;;;;;;5093824;28;20422;-90
2023/12/15 07:25:33;;;;;;;82.55;27.45;;;;;;;;;;5094360;28;20418;-90
2023/12/15 07:28:01;;;;;;;91.50;28.80;;;;;;;;;;5091420;28;20402;-91
2023/12/15 07:30:27;;;;;;;88.50;28.17;;;;;;;;;;5080179;28;20479;-89
2023/12/15 07:33:11;;;;;;;92.95;28.17;;;;;;;;;;5091315;28;20459;-91
2023/12/15 07:35:46;;;;;;;87.28;26.35;;;;;;;;;;5059369;28;20810;-87
2023/12/15 07:38:18;;;;;;;85.70;28.23;;;;;;;;;;5018290;28;20825;-87
2023/12/15 07:41:10;;;;;;;82.07;28.07;;;;;;;;;;5029741;28;20957;-87
2023/12/15 07:46:27;;;;;;;100.78;30.80;;;;;;;;;;4972244;28;20891;-88
2023/12/15 07:48:53;;;;;;;97.13;28.80;;;;;;;;;;5010881;28;20407;-88
2023/12/15 07:51:20;;;;;;;83.22;27.50;;;;;;;;;;4996613;28;20560;-87
2023/12/15 07:53:47;;;;;;;83.60;26.37;;;;;;;;;;4996415;28;20604;-89
2023/12/15 07:56:26;;;;;;;84.25;26.67;;;;;;;;;;5031355;28;20422;-89
2023/12/15 07:58:56;;;;;;;93.57;27.85;;;;;;;;;;4997260;28;20469;-87
2023/12/15 08:01:23;;;;;;;78.68;25.63;;;;;;;;;;5017074;28;20430;-89
2023/12/15 08:03:52;;;;;;;77.88;26.20;;;;;;;;;;5016316;28;20478;-89
2023/12/15 08:06:56;;;;;;;85.55;26.83;;;;;;;;;;5038347;28;20450;-89
2023/12/15 08:09:30;;;;;;;85.63;26.40;;;;;;;;;;5023528;28;20394;-93
2023/12/15 08:12:15;;;;;;;75.85;26.85;;;;;;;;;;5023518;28;20432;-92
2023/12/15 08:14:48;;;;;;;88.33;27.60;;;;;;;;;;5069156;28;20405;-90
2023/12/15 08:27:06;;;;;;;79.78;26.05;;;;;;;;;;5077568;28;20405;-91
2023/12/15 08:29:35;;;;;;;67.75;22.85;;;;;;;;;;5079699;28;20407;-91
2023/12/15 08:32:05;;;;;;;68.47;22.35;;;;;;;;;;5057911;28;20415;-90
2023/12/15 08:34:52;;;;;;;65.40;21.27;;;;;;;;;;5058385;28;20895;-90
2023/12/15 08:37:21;;;;;;;63.67;22.43;;;;;;;;;;5069447;28;20556;-90
2023/12/15 08:49:51;;;;;;;62.10;20.38;;;;;;;;;;4957338;28;20459;-87
2023/12/15 08:52:44;;;;;;;65.30;21.25;;;;;;;;;;4980928;28;20635;-91
2023/12/15 08:58:51;;;;;;;52.20;18.20;;;;;;;;;;5014010;28;20388;-87
2023/12/15 09:01:51;;;;;;;57.38;18.98;;;;;;;;;;4996890;28;20459;-90
2023/12/15 09:04:17;;;;;;;53.92;17.60;;;;;;;;;;4977460;28;20487;-88
2023/12/15 09:06:43;;;;;;;55.30;17.65;;;;;;;;;;4997746;28;20403;-88
2023/12/15 09:09:10;;;;;;;55.30;17.45;;;;;;;;;;5071461;28;20391;-87
2023/12/15 09:11:37;;;;;;;49.80;16.33;;;;;;;;;;5077712;28;20421;-85
2023/12/15 09:14:15;;;;;;;52.70;16.83;;;;;;;;;;5056982;28;20430;-87
2023/12/15 09:16:57;;;;;;;43.65;15.63;;;;;;;;;;5069162;28;20501;-88
2023/12/15 09:19:34;;;;;;;47.83;14.80;;;;;;;;;;5093283;28;20409;-88
2023/12/15 09:22:09;;;;;;;45.80;14.68;;;;;;;;;;5080654;28;20903;-88
2023/12/15 09:24:35;;;;;;;50.80;15.20;;;;;;;;;;5062104;28;20432;-88
2023/12/15 09:27:01;;;;;;;47.43;14.30;;;;;;;;;;5073079;28;20411;-88
2023/12/15 09:29:35;;;;;;;45.33;13.95;;;;;;;;;;5049899;28;20400;-88
2023/12/15 09:32:07;;;;;;;49.83;13.82;;;;;;;;;;5068883;28;20405;-88
2023/12/15 09:34:39;;;;;;;53.50;13.00;;;;;;;;;;5086102;28;20417;-87
2023/12/15 09:37:11;;;;;;;45.95;13.68;;;;;;;;;;5055091;28;20804;-83
2023/12/15 09:39:37;;;;;;;50.30;13.57;;;;;;;;;;5072369;28;20926;-85
2023/12/15 09:42:10;;;;;;;42.78;12.60;;;;;;;;;;5078435;28;21189;-84
2023/12/15 09:44:39;;;;;;;41.28;12.27;;;;;;;;;;5038561;28;20430;-84
2023/12/15 09:47:07;;;;;;;47.30;12.23;;;;;;;;;;5061994;28;20751;-85
2023/12/15 09:49:40;;;;;;;44.42;11.23;;;;;;;;;;5082348;28;20420;-85
2023/12/15 09:52:07;;;;;;;43.88;11.27;;;;;;;;;;5058501;28;20931;-85
2023/12/15 09:54:34;;;;;;;45.80;11.50;;;;;;;;;;5062989;28;20406;-85
2023/12/15 09:57:00;;;;;;;46.58;12.20;;;;;;;;;;5071110;28;20752;-84
2023/12/15 09:59:30;;;;;;;41.15;11.02;;;;;;;;;;5071660;28;20408;-84
2023/12/15 10:01:56;;;;;;;47.67;12.80;;;;;;;;;;5071802;28;20949;-85
2023/12/15 10:04:22;;;;;;;51.38;11.55;;;;;;;;;;5060198;28;20424;-83
2023/12/15 10:06:48;;;;;;;46.13;11.27;;;;;;;;;;5060562;28;20502;-87
2023/12/15 10:09:15;;;;;;;41.88;10.57;;;;;;;;;;5040473;28;20893;-86
2023/12/15 10:11:44;;;;;;;44.72;10.95;;;;;;;;;;5051568;28;20405;-86
2023/12/15 10:14:11;;;;;;;49.25;10.57;;;;;;;;;;5057264;28;20516;-85
2023/12/15 10:16:37;;;;;;;40.47;10.70;;;;;;;;;;5054384;28;20423;-85
2023/12/15 10:19:04;;;;;;;37.40;9.38;;;;;;;;;;5054565;28;20399;-84
2023/12/15 10:21:31;;;;;;;41.97;9.40;;;;;;;;;;5075165;28;20893;-83
2023/12/15 10:23:57;;;;;;;40.55;10.07;;;;;;;;;;5052184;28;20479;-84
2023/12/15 10:26:23;;;;;;;45.50;10.02;;;;;;;;;;5052603;28;20398;-86
2023/12/15 10:28:54;;;;;;;41.50;10.55;;;;;;;;;;5069076;28;20406;-86
2023/12/15 10:31:21;;;;;;;37.40;9.65;;;;;;;;;;5076531;28;20912;-88
2023/12/15 10:33:47;;;;;;;36.83;9.07;;;;;;;;;;5039973;28;20531;-89
2023/12/15 10:36:14;;;;;;;34.63;8.45;;;;;;;;;;5060204;28;20488;-88
2023/12/15 10:38:40;;;;;;;33.40;8.48;;;;;;;;;;5080159;28;20404;-87
2023/12/15 10:41:08;;;;;;;36.17;8.30;;;;;;;;;;5070817;28;20461;-87
2023/12/15 10:43:35;;;;;;;35.47;8.60;;;;;;;;;;5085625;28;20508;-89
2023/12/15 10:46:02;;;;;;;36.53;8.40;;;;;;;;;;5088189;28;20403;-90
2023/12/15 10:48:30;;;;;;;37.37;8.47;;;;;;;;;;5084121;28;20393;-88
2023/12/15 10:50:57;;;;;;;38.15;7.90;;;;;;;;;;5075710;28;20479;-88
2023/12/15 10:53:24;;;;;;;32.53;8.27;;;;;;;;;;5080476;28;20415;-88
2023/12/15 10:55:50;;;;;;;40.10;7.10;;;;;;;;;;5089185;28;20414;-87
2023/12/15 10:58:19;;;;;;;35.58;7.40;;;;;;;;;;5091171;28;20406;-93
2023/12/15 11:00:46;;;;;;;33.55;6.93;;;;;;;;;;5086979;28;20407;-89
2023/12/15 11:03:15;;;;;;;36.83;6.93;;;;;;;;;;5089867;28;20489;-89
2023/12/15 11:05:42;;;;;;;36.30;8.10;;;;;;;;;;5089597;28;20411;-88
2023/12/15 11:08:10;;;;;;;34.15;7.57;;;;;;;;;;5087744;28;20396;-89
2023/12/15 11:10:42;;;;;;;32.78;6.93;;;;;;;;;;5087255;28;20430;-88
2023/12/15 11:13:27;;;;;;;35.70;7.13;;;;;;;;;;5065239;28;20419;-89
2023/12/15 11:15:54;;;;;;;32.92;7.13;;;;;;;;;;5088656;28;20404;-88
2023/12/15 11:18:21;;;;;;;38.67;7.28;;;;;;;;;;5086996;28;20503;-88
2023/12/15 11:20:50;;;;;;;36.38;6.43;;;;;;;;;;5071644;28;20537;-83
2023/12/15 11:23:16;;;;;;;31.15;6.78;;;;;;;;;;5070046;28;20446;-85
2023/12/15 11:25:45;;;;;;;32.92;6.85;;;;;;;;;;5084374;28;21410;-85
2023/12/15 11:28:15;;;;;;;40.10;7.30;;;;;;;;;;5086343;28;20407;-83
2023/12/15 11:30:45;;;;;;;35.37;7.13;;;;;;;;;;5081116;28;20480;-86
2023/12/15 11:33:30;;;;;;;39.42;7.60;;;;;;;;;;5050982;28;20403;-86
2023/12/15 11:35:59;;;;;;;35.50;6.73;;;;;;;;;;5091151;28;20460;-87
2023/12/15 11:38:26;;;;;;;37.50;7.15;;;;;;;;;;5078667;28;20444;-85
2023/12/15 11:40:55;;;;;;;30.02;6.60;;;;;;;;;;5074587;28;20426;-86
2023/12/15 11:43:23;;;;;;;32.08;6.93;;;;;;;;;;5057439;28;20454;-85
2023/12/15 11:45:51;;;;;;;33.45;7.47;;;;;;;;;;5079992;28;20419;-83
2023/12/15 11:48:18;;;;;;;32.35;7.25;;;;;;;;;;5091930;28;20426;-83
2023/12/15 11:54:37;;;;;;;35.72;7.38;;;;;;;;;;5080531;28;20793;-90
2023/12/15 12:07:13;;;;;;;37.60;7.68;;;;;;;;;;4997453;28;20414;-88
2023/12/15 12:09:48;;;;;;;36.72;8.38;;;;;;;;;;4995940;28;20417;-88
2023/12/15 12:12:18;;;;;;;27.90;6.47;;;;;;;;;;4981985;28;20746;-89
2023/12/15 12:14:48;;;;;;;36.08;7.10;;;;;;;;;;4979729;28;20507;-86
2023/12/15 12:17:16;;;;;;;35.83;8.30;;;;;;;;;;5012139;28;20416;-90
2023/12/15 12:19:43;;;;;;;37.57;7.43;;;;;;;;;;4984121;28;20464;-85
2023/12/15 12:22:36;;;;;;;36.50;7.15;;;;;;;;;;5002246;28;21112;-88
2023/12/15 12:25:23;;;;;;;25.23;6.57;;;;;;;;;;4981561;28;20500;-87
2023/12/15 12:28:53;;;;;;;31.63;7.00;;;;;;;;;;5005938;28;20431;-84
2023/12/15 12:31:21;;;;;;;29.40;7.85;;;;;;;;;;5021071;28;20966;-89
2023/12/15 12:34:09;;;;;;;26.70;6.28;;;9.90;99.90;;;;;;5029747;28;20399;-90
2023/12/15 12:36:38;;;;;;;31.67;7.10;;;;;;;;;;5092771;28;20406;-86
2023/12/15 12:39:10;;;;;;;29.58;7.38;;;;;;;;;;5098640;28;20398;-85
2023/12/15 12:41:36;;;;;;;30.67;6.90;;;;;;;;;;5064658;28;20942;-86
2023/12/15 12:44:02;;;;;;;36.58;7.78;;;;;;;;;;5093945;28;20429;-87
2023/12/15 12:46:36;;;;;;;39.55;7.30;;;;;;;;;;5115723;27;20402;-86
2023/12/15 12:49:02;;;;;;;27.40;6.65;;;;;;;;;;5082734;28;20725;-86
2023/12/15 12:51:34;;;;;;;35.33;7.30;;;;;;;;;;5061737;28;20402;-87
2023/12/15 12:54:02;;;;;;;29.38;7.90;;;;;;;;;;5074780;28;20405;-87
2023/12/15 12:56:34;;;;;;;37.53;7.50;;;;;;;;;;5075329;28;20519;-85
2023/12/15 12:59:00;;;;;;;33.15;7.40;;;;;;;;;;5094799;28;20535;-87
2023/12/15 13:01:28;;;;;;;31.35;7.07;;;;;;;;;;5064175;28;20454;-83
2023/12/15 13:03:55;;;;;;;30.50;7.50;;;;;;;;;;5075884;28;20424;-83
2023/12/15 13:06:21;;;;;;;35.30;7.03;;;;;;;;;;5061842;28;20886;-84
2023/12/15 13:08:47;;;;;;;34.83;7.85;;;;;;;;;;5096908;28;20388;-81
2023/12/15 13:11:17;;;;;;;35.20;7.10;;;;;;;;;;5080148;28;20406;-83
2023/12/15 13:13:43;;;;;;;33.30;7.07;;;;;;;;;;5069983;28;20446;-84
2023/12/15 13:16:10;;;;;;;32.58;7.03;;;;;;;;;;5075786;28;20410;-86
2023/12/15 13:18:52;;;;;;;33.30;7.20;;;;;;;;;;5081659;28;20475;-85
2023/12/15 13:21:21;;;;;;;32.38;7.22;;;;;;;;;;5108295;28;20467;-85
2023/12/15 13:23:47;;;;;;;38.90;7.10;;;;;;;;;;5058790;28;20509;-84
2023/12/15 13:26:14;;;;;;;33.53;7.30;;;;;;;;;;5108287;28;20456;-84
2023/12/15 13:28:41;;;;;;;30.97;7.40;;;;;;;;;;5068596;28;20393;-84
2023/12/15 13:31:07;;;;;;;31.50;7.05;;;;;;;;;;5073047;28;20784;-84
2023/12/15 13:33:33;;;;;;;28.10;6.57;;;;;;;;;;5086433;28;20396;-84
2023/12/15 13:35:59;;;;;;;32.55;6.85;;;;;;;;;;5071341;28;20484;-83
2023/12/15 13:38:27;;;;;;;32.60;7.00;;;;;;;;;;5075064;28;20759;-84
2023/12/15 13:40:56;;;;;;;30.35;6.82;;;;;;;;;;5078532;28;20434;-86
2023/12/15 13:43:25;;;;;;;30.83;7.13;;;;;;;;;;5096552;28;20465;-85
2023/12/15 13:46:09;;;;;;;28.87;7.70;;;;;;;;;;5057416;28;20447;-86
2023/12/15 13:48:41;;;;;;;34.78;6.47;;;;;;;;;;5093009;28;20430;-85
2023/12/15 13:51:23;;;;;;;31.15;6.93;;;;;;;;;;5075110;28;20409;-85
2023/12/15 13:54:02;;;;;;;29.20;6.05;;;;;;;;;;5066566;28;20419;-89
2023/12/15 13:56:28;;;;;;;29.30;6.10;;;;;;;;;;5072966;28;20409;-88
2023/12/15 13:58:59;;;;;;;29.77;5.88;;;;;;;;;;5058936;28;20424;-87
2023/12/15 14:01:34;;;;;;;32.67;7.35;;;;;;;;;;5089450;28;20469;-89
2023/12/15 14:04:04;;;;;;;32.15;6.78;;;;;;;;;;5075975;28;20429;-86
2023/12/15 14:06:33;;;;;;;31.05;6.32;;;;;;;;;;5092605;28;20497;-86
2023/12/15 14:08:59;;;;;;;29.17;6.20;;;;;;;;;;5058294;28;20398;-85
2023/12/15 14:11:28;;;;;;;31.52;6.35;;;;;;;;;;5041008;28;20456;-85
2023/12/15 14:17:02;;;;;;;26.70;5.43;;;;;;;;;;5076621;28;20400;-88
2023/12/15 14:23:12;;;;;;;27.73;6.05;;;;;;;;;;5084523;28;20423;-87
2023/12/15 14:25:54;;;;;;;22.53;6.17;;;;;;;;;;5059016;28;20401;-88
2023/12/15 14:28:21;;;;;;;28.15;5.65;;;;;;;;;;5069612;28;20434;-88
2023/12/15 14:30:57;;;;;;;24.70;5.70;;;;;;;;;;5091041;28;20888;-86
2023/12/15 14:33:35;;;;;;;23.98;5.45;;;;;;;;;;5056394;28;20428;-87
2023/12/15 14:36:07;;;;;;;39.17;6.03;;;;;;;;;;5069034;28;20979;-86
2023/12/15 14:38:39;;;;;;;32.60;6.10;;;;;;;;;;5060070;28;20428;-86
2023/12/15 14:41:08;;;;;;;23.80;5.33;;;;;;;;;;5091940;28;20587;-85
2023/12/15 14:43:48;;;;;;;31.33;6.47;;;;;;;;;;5057836;28;20414;-86
2023/12/15 14:46:14;;;;;;;33.38;7.40;;;;;;;;;;5070802;28;20852;-86
2023/12/15 14:48:44;;;;;;;24.83;5.53;;;;;;;;;;5068275;28;20398;-85
2023/12/15 14:51:28;;;;;;;32.42;6.00;;;;;;;;;;5115388;27;20743;-83
2023/12/15 14:54:12;;;;;;;24.17;5.30;;;;;;;;;;5056660;28;20429;-87
2023/12/15 14:59:57;;;;;;;30.38;5.78;;;;;;;;;;4996079;28;20499;-87
2023/12/15 15:02:26;;;;;;;33.38;6.50;;;;;;;;;;5029176;28;20399;-88
2023/12/15 15:04:57;;;;;;;28.75;6.60;;;;;;;;;;5013811;28;20407;-88
2023/12/15 15:07:57;;;;;;;31.83;7.00;;;;;;;;;;5036634;28;20401;-88
2023/12/15 15:10:32;;;;;;;29.38;6.45;;;;;;;;;;5014137;28;20403;-88
2023/12/15 15:12:58;;;;;;;25.70;6.45;;;;;;;;;;5010242;28;20408;-86
2023/12/15 15:15:50;;;;;;;32.55;6.28;;;;;;;;;;5043148;28;20419;-88
2023/12/15 15:18:23;;;;;;;22.65;5.15;;;;;;;;;;5043546;28;20401;-89
2023/12/15 15:20:55;;;;;;;31.48;5.53;;;;;;;;;;5052646;28;20399;-90
2023/12/15 15:23:22;;;;;;;28.77;6.18;;;;;;;;;;5064324;28;20503;-89
2023/12/15 15:25:48;;;;;;;29.58;5.95;;;;;;;;;;5056704;28;20471;-85
2023/12/15 15:28:14;;;;;;;26.70;7.20;;;;;;;;;;5085878;28;20407;-88